sensor_id;sensor_type;location;lat;lon;timestamp;P1;durP1;ratioP1;P2;durP2;ratioP2
64351;SDS011;50680;52.626;-8.668;2022-10-23T00:03:53;8.25;;;1.60;;
64351;SDS011;50680;52.626;-8.668;2022-10-23T00:06:22;3.90;;;1.00;;
64351;SDS011;50680;52.626;-8.668;2022-10-23T00:08:50;8.45;;;1.50;;
64351;SDS011;50680;52.626;-8.668;2022-10-23T00:11:18;5.13;;;1.40;;
64351;SDS011;50680;52.626;-8.668;2022-10-23T00:13:48;7.25;;;1.17;;
64351;SDS011;50680;52.626;-8.668;2022-10-23T00:16:15;2.35;;;1.13;;
64351;SDS011;50680;52.626;-8.668;2022-10-23T00:18:42;5.18;;;1.00;;
64351;SDS011;50680;52.626;-8.668;2022-10-23T00:21:11;4.20;;;0.80;;
64351;SDS011;50680;52.626;-8.668;2022-10-23T00:23:40;5.35;;;1.00;;
64351;SDS011;50680;52.626;-8.668;2022-10-23T00:26:08;1.35;;;0.70;;
64351;SDS011;50680;52.626;-8.668;2022-10-23T00:28:45;8.50;;;1.10;;
64351;SDS011;50680;52.626;-8.668;2022-10-23T00:31:14;2.88;;;0.80;;
64351;SDS011;50680;52.626;-8.668;2022-10-23T00:33:41;5.85;;;0.98;;
64351;SDS011;50680;52.626;-8.668;2022-10-23T00:36:10;4.00;;;0.80;;
64351;SDS011;50680;52.626;-8.668;2022-10-23T00:38:39;5.50;;;0.88;;
64351;SDS011;50680;52.626;-8.668;2022-10-23T00:41:06;2.70;;;0.80;;
64351;SDS011;50680;52.626;-8.668;2022-10-23T00:43:52;6.60;;;2.13;;
64351;SDS011;50680;52.626;-8.668;2022-10-23T00:46:24;10.88;;;5.00;;
64351;SDS011;50680;52.626;-8.668;2022-10-23T00:48:51;11.27;;;4.72;;
64351;SDS011;50680;52.626;-8.668;2022-10-23T00:51:18;11.20;;;5.90;;
64351;SDS011;50680;52.626;-8.668;2022-10-23T00:53:45;16.73;;;8.23;;
64351;SDS011;50680;52.626;-8.668;2022-10-23T00:56:35;11.35;;;4.85;;
64351;SDS011;50680;52.626;-8.668;2022-10-23T00:59:05;8.60;;;3.55;;
64351;SDS011;50680;52.626;-8.668;2022-10-23T01:01:32;19.33;;;6.30;;
64351;SDS011;50680;52.626;-8.668;2022-10-23T01:04:00;23.00;;;7.72;;
64351;SDS011;50680;52.626;-8.668;2022-10-23T01:06:35;9.98;;;5.10;;
64351;SDS011;50680;52.626;-8.668;2022-10-23T01:09:14;14.32;;;5.57;;
64351;SDS011;50680;52.626;-8.668;2022-10-23T01:14:31;13.75;;;4.57;;
64351;SDS011;50680;52.626;-8.668;2022-10-23T01:31:17;14.00;;;5.82;;
64351;SDS011;50680;52.626;-8.668;2022-10-23T01:33:51;9.48;;;4.80;;
64351;SDS011;50680;52.626;-8.668;2022-10-23T01:36:24;9.63;;;4.35;;
64351;SDS011;50680;52.626;-8.668;2022-10-23T01:39:01;10.55;;;4.70;;
64351;SDS011;50680;52.626;-8.668;2022-10-23T01:41:36;12.07;;;5.30;;
64351;SDS011;50680;52.626;-8.668;2022-10-23T01:46:48;16.52;;;5.47;;
64351;SDS011;50680;52.626;-8.668;2022-10-23T01:49:17;37.88;;;6.18;;
64351;SDS011;50680;52.626;-8.668;2022-10-23T01:51:47;4.13;;;2.47;;
64351;SDS011;50680;52.626;-8.668;2022-10-23T01:54:25;1.65;;;0.80;;
64351;SDS011;50680;52.626;-8.668;2022-10-23T01:56:56;2.30;;;0.90;;
64351;SDS011;50680;52.626;-8.668;2022-10-23T01:59:26;2.20;;;0.40;;
64351;SDS011;50680;52.626;-8.668;2022-10-23T02:01:57;1.30;;;0.50;;
64351;SDS011;50680;52.626;-8.668;2022-10-23T02:04:28;2.85;;;0.52;;
64351;SDS011;50680;52.626;-8.668;2022-10-23T02:06:59;1.60;;;0.65;;
64351;SDS011;50680;52.626;-8.668;2022-10-23T02:09:26;1.05;;;0.45;;
64351;SDS011;50680;52.626;-8.668;2022-10-23T02:12:05;2.72;;;0.60;;
64351;SDS011;50680;52.626;-8.668;2022-10-23T02:14:36;1.38;;;0.50;;
64351;SDS011;50680;52.626;-8.668;2022-10-23T02:17:20;2.47;;;0.60;;
64351;SDS011;50680;52.626;-8.668;2022-10-23T02:19:57;1.52;;;0.50;;
64351;SDS011;50680;52.626;-8.668;2022-10-23T02:22:35;2.25;;;0.52;;
64351;SDS011;50680;52.626;-8.668;2022-10-23T02:25:12;2.25;;;0.60;;
64351;SDS011;50680;52.626;-8.668;2022-10-23T02:27:48;1.98;;;0.50;;
64351;SDS011;50680;52.626;-8.668;2022-10-23T02:30:19;0.88;;;0.50;;
64351;SDS011;50680;52.626;-8.668;2022-10-23T02:32:47;1.67;;;0.52;;
64351;SDS011;50680;52.626;-8.668;2022-10-23T02:35:18;3.53;;;0.60;;
64351;SDS011;50680;52.626;-8.668;2022-10-23T02:37:53;1.75;;;0.70;;
64351;SDS011;50680;52.626;-8.668;2022-10-23T02:40:25;5.63;;;0.60;;
64351;SDS011;50680;52.626;-8.668;2022-10-23T02:43:08;2.30;;;0.63;;
64351;SDS011;50680;52.626;-8.668;2022-10-23T02:48:43;7.60;;;1.00;;
64351;SDS011;50680;52.626;-8.668;2022-10-23T02:51:21;1.83;;;0.80;;
64351;SDS011;50680;52.626;-8.668;2022-10-23T02:54:26;4.05;;;1.00;;
64351;SDS011;50680;52.626;-8.668;2022-10-23T02:59:57;5.18;;;1.10;;
64351;SDS011;50680;52.626;-8.668;2022-10-23T03:02:47;2.92;;;1.00;;
64351;SDS011;50680;52.626;-8.668;2022-10-23T03:05:17;3.65;;;0.90;;
64351;SDS011;50680;52.626;-8.668;2022-10-23T03:07:47;5.35;;;0.90;;
64351;SDS011;50680;52.626;-8.668;2022-10-23T03:10:14;5.32;;;1.00;;
64351;SDS011;50680;52.626;-8.668;2022-10-23T03:12:41;2.47;;;1.10;;
64351;SDS011;50680;52.626;-8.668;2022-10-23T03:15:09;6.40;;;1.20;;
64351;SDS011;50680;52.626;-8.668;2022-10-23T03:17:37;5.35;;;1.65;;
64351;SDS011;50680;52.626;-8.668;2022-10-23T03:20:04;4.88;;;1.30;;
64351;SDS011;50680;52.626;-8.668;2022-10-23T03:22:32;4.32;;;1.40;;
64351;SDS011;50680;52.626;-8.668;2022-10-23T03:24:59;4.50;;;1.30;;
64351;SDS011;50680;52.626;-8.668;2022-10-23T03:27:26;2.80;;;1.00;;
64351;SDS011;50680;52.626;-8.668;2022-10-23T03:29:57;9.27;;;1.55;;
64351;SDS011;50680;52.626;-8.668;2022-10-23T03:32:24;4.70;;;1.23;;
64351;SDS011;50680;52.626;-8.668;2022-10-23T03:34:51;4.00;;;1.15;;
64351;SDS011;50680;52.626;-8.668;2022-10-23T03:37:18;6.13;;;1.30;;
64351;SDS011;50680;52.626;-8.668;2022-10-23T03:39:44;7.22;;;0.98;;
64351;SDS011;50680;52.626;-8.668;2022-10-23T03:42:11;2.55;;;0.90;;
64351;SDS011;50680;52.626;-8.668;2022-10-23T03:44:38;5.88;;;0.93;;
64351;SDS011;50680;52.626;-8.668;2022-10-23T03:47:05;4.68;;;1.20;;
64351;SDS011;50680;52.626;-8.668;2022-10-23T03:49:35;3.38;;;0.98;;
64351;SDS011;50680;52.626;-8.668;2022-10-23T03:52:02;5.60;;;1.00;;
64351;SDS011;50680;52.626;-8.668;2022-10-23T03:54:29;3.15;;;1.00;;
64351;SDS011;50680;52.626;-8.668;2022-10-23T03:56:56;1.45;;;0.90;;
64351;SDS011;50680;52.626;-8.668;2022-10-23T03:59:23;4.47;;;1.10;;
64351;SDS011;50680;52.626;-8.668;2022-10-23T04:01:50;3.20;;;0.90;;
64351;SDS011;50680;52.626;-8.668;2022-10-23T04:04:17;5.40;;;0.98;;
64351;SDS011;50680;52.626;-8.668;2022-10-23T04:06:44;10.50;;;1.00;;
64351;SDS011;50680;52.626;-8.668;2022-10-23T04:09:11;6.32;;;1.10;;
64351;SDS011;50680;52.626;-8.668;2022-10-23T04:11:42;2.35;;;0.98;;
64351;SDS011;50680;52.626;-8.668;2022-10-23T04:14:10;5.18;;;1.02;;
64351;SDS011;50680;52.626;-8.668;2022-10-23T04:16:38;5.47;;;1.10;;
64351;SDS011;50680;52.626;-8.668;2022-10-23T04:19:06;8.02;;;1.48;;
64351;SDS011;50680;52.626;-8.668;2022-10-23T04:21:32;1.88;;;0.98;;
64351;SDS011;50680;52.626;-8.668;2022-10-23T04:23:59;3.85;;;1.10;;
64351;SDS011;50680;52.626;-8.668;2022-10-23T04:26:26;6.75;;;0.90;;
64351;SDS011;50680;52.626;-8.668;2022-10-23T04:28:53;2.17;;;0.77;;
64351;SDS011;50680;52.626;-8.668;2022-10-23T04:31:20;3.65;;;0.90;;
64351;SDS011;50680;52.626;-8.668;2022-10-23T04:33:47;3.90;;;1.33;;
64351;SDS011;50680;52.626;-8.668;2022-10-23T04:36:14;4.30;;;0.90;;
64351;SDS011;50680;52.626;-8.668;2022-10-23T04:38:41;6.88;;;0.85;;
64351;SDS011;50680;52.626;-8.668;2022-10-23T04:41:08;4.40;;;0.85;;
64351;SDS011;50680;52.626;-8.668;2022-10-23T04:43:35;2.03;;;0.55;;
64351;SDS011;50680;52.626;-8.668;2022-10-23T04:46:02;2.28;;;0.88;;
64351;SDS011;50680;52.626;-8.668;2022-10-23T04:48:29;3.45;;;0.75;;
64351;SDS011;50680;52.626;-8.668;2022-10-23T04:51:03;4.43;;;0.82;;
64351;SDS011;50680;52.626;-8.668;2022-10-23T04:53:31;3.38;;;0.57;;
64351;SDS011;50680;52.626;-8.668;2022-10-23T04:55:58;2.67;;;0.80;;
64351;SDS011;50680;52.626;-8.668;2022-10-23T04:58:25;2.50;;;0.93;;
64351;SDS011;50680;52.626;-8.668;2022-10-23T05:00:54;2.22;;;0.85;;
64351;SDS011;50680;52.626;-8.668;2022-10-23T05:03:22;6.25;;;1.00;;
64351;SDS011;50680;52.626;-8.668;2022-10-23T05:05:53;2.97;;;1.05;;
64351;SDS011;50680;52.626;-8.668;2022-10-23T05:08:21;4.32;;;0.80;;
64351;SDS011;50680;52.626;-8.668;2022-10-23T05:10:48;3.45;;;0.80;;
64351;SDS011;50680;52.626;-8.668;2022-10-23T05:13:16;7.63;;;0.90;;
64351;SDS011;50680;52.626;-8.668;2022-10-23T05:15:48;4.03;;;0.73;;
64351;SDS011;50680;52.626;-8.668;2022-10-23T05:18:29;2.15;;;0.80;;
64351;SDS011;50680;52.626;-8.668;2022-10-23T05:21:01;4.40;;;1.03;;
64351;SDS011;50680;52.626;-8.668;2022-10-23T05:23:33;7.55;;;1.45;;
64351;SDS011;50680;52.626;-8.668;2022-10-23T05:26:02;3.90;;;1.23;;
64351;SDS011;50680;52.626;-8.668;2022-10-23T05:28:30;5.03;;;1.02;;
64351;SDS011;50680;52.626;-8.668;2022-10-23T05:30:57;4.47;;;1.10;;
64351;SDS011;50680;52.626;-8.668;2022-10-23T05:33:26;3.03;;;1.00;;
64351;SDS011;50680;52.626;-8.668;2022-10-23T05:35:55;3.92;;;0.90;;
64351;SDS011;50680;52.626;-8.668;2022-10-23T05:38:23;2.22;;;1.00;;
64351;SDS011;50680;52.626;-8.668;2022-10-23T05:40:52;3.08;;;0.80;;
64351;SDS011;50680;52.626;-8.668;2022-10-23T05:43:20;3.92;;;1.27;;
64351;SDS011;50680;52.626;-8.668;2022-10-23T05:45:47;3.30;;;1.20;;
64351;SDS011;50680;52.626;-8.668;2022-10-23T05:48:14;4.53;;;1.00;;
64351;SDS011;50680;52.626;-8.668;2022-10-23T05:51:05;3.08;;;1.10;;
64351;SDS011;50680;52.626;-8.668;2022-10-23T05:53:33;6.03;;;1.50;;
64351;SDS011;50680;52.626;-8.668;2022-10-23T05:56:07;6.82;;;1.58;;
64351;SDS011;50680;52.626;-8.668;2022-10-23T05:58:34;4.85;;;1.48;;
64351;SDS011;50680;52.626;-8.668;2022-10-23T06:01:05;4.60;;;1.55;;
64351;SDS011;50680;52.626;-8.668;2022-10-23T06:03:36;7.85;;;2.03;;
64351;SDS011;50680;52.626;-8.668;2022-10-23T06:06:05;3.33;;;1.73;;
64351;SDS011;50680;52.626;-8.668;2022-10-23T06:08:33;6.28;;;1.42;;
64351;SDS011;50680;52.626;-8.668;2022-10-23T06:11:07;7.32;;;1.77;;
64351;SDS011;50680;52.626;-8.668;2022-10-23T06:13:35;6.25;;;1.88;;
64351;SDS011;50680;52.626;-8.668;2022-10-23T06:16:12;5.65;;;2.22;;
64351;SDS011;50680;52.626;-8.668;2022-10-23T06:18:41;5.50;;;2.30;;
64351;SDS011;50680;52.626;-8.668;2022-10-23T06:21:08;6.68;;;1.95;;
64351;SDS011;50680;52.626;-8.668;2022-10-23T06:23:36;7.22;;;1.77;;
64351;SDS011;50680;52.626;-8.668;2022-10-23T06:26:04;6.40;;;2.30;;
64351;SDS011;50680;52.626;-8.668;2022-10-23T06:28:32;7.38;;;2.13;;
64351;SDS011;50680;52.626;-8.668;2022-10-23T06:30:59;7.25;;;1.88;;
64351;SDS011;50680;52.626;-8.668;2022-10-23T06:33:30;5.70;;;2.00;;
64351;SDS011;50680;52.626;-8.668;2022-10-23T06:35:57;6.30;;;1.88;;
64351;SDS011;50680;52.626;-8.668;2022-10-23T06:38:24;9.20;;;1.92;;
64351;SDS011;50680;52.626;-8.668;2022-10-23T06:40:55;7.40;;;1.90;;
64351;SDS011;50680;52.626;-8.668;2022-10-23T06:43:22;7.40;;;2.33;;
64351;SDS011;50680;52.626;-8.668;2022-10-23T06:45:49;8.07;;;2.30;;
64351;SDS011;50680;52.626;-8.668;2022-10-23T06:48:15;7.53;;;2.42;;
64351;SDS011;50680;52.626;-8.668;2022-10-23T06:50:42;13.30;;;3.30;;
64351;SDS011;50680;52.626;-8.668;2022-10-23T06:53:09;8.32;;;2.80;;
64351;SDS011;50680;52.626;-8.668;2022-10-23T06:55:38;12.23;;;3.13;;
64351;SDS011;50680;52.626;-8.668;2022-10-23T06:58:08;10.02;;;2.58;;
64351;SDS011;50680;52.626;-8.668;2022-10-23T07:00:36;8.68;;;2.10;;
64351;SDS011;50680;52.626;-8.668;2022-10-23T07:03:04;11.07;;;2.03;;
64351;SDS011;50680;52.626;-8.668;2022-10-23T07:05:31;8.25;;;2.72;;
64351;SDS011;50680;52.626;-8.668;2022-10-23T07:07:58;10.38;;;3.20;;
64351;SDS011;50680;52.626;-8.668;2022-10-23T07:10:25;15.77;;;3.35;;
64351;SDS011;50680;52.626;-8.668;2022-10-23T07:12:52;10.88;;;3.85;;
64351;SDS011;50680;52.626;-8.668;2022-10-23T07:15:19;11.95;;;4.30;;
64351;SDS011;50680;52.626;-8.668;2022-10-23T07:17:46;15.65;;;2.65;;
64351;SDS011;50680;52.626;-8.668;2022-10-23T07:20:13;9.45;;;3.03;;
64351;SDS011;50680;52.626;-8.668;2022-10-23T07:22:40;14.18;;;3.25;;
64351;SDS011;50680;52.626;-8.668;2022-10-23T07:25:07;12.65;;;3.33;;
64351;SDS011;50680;52.626;-8.668;2022-10-23T07:27:37;15.18;;;6.07;;
64351;SDS011;50680;52.626;-8.668;2022-10-23T07:30:05;18.50;;;5.32;;
64351;SDS011;50680;52.626;-8.668;2022-10-23T07:32:32;13.05;;;3.72;;
64351;SDS011;50680;52.626;-8.668;2022-10-23T07:34:59;12.35;;;3.95;;
64351;SDS011;50680;52.626;-8.668;2022-10-23T07:37:27;21.17;;;3.35;;
64351;SDS011;50680;52.626;-8.668;2022-10-23T07:39:55;12.45;;;3.58;;
64351;SDS011;50680;52.626;-8.668;2022-10-23T07:42:22;15.75;;;4.82;;
64351;SDS011;50680;52.626;-8.668;2022-10-23T07:44:49;19.38;;;4.95;;
64351;SDS011;50680;52.626;-8.668;2022-10-23T07:47:16;24.67;;;3.80;;
64351;SDS011;50680;52.626;-8.668;2022-10-23T07:49:43;23.25;;;5.05;;
64351;SDS011;50680;52.626;-8.668;2022-10-23T07:52:09;16.50;;;4.38;;
64351;SDS011;50680;52.626;-8.668;2022-10-23T07:54:36;20.70;;;4.93;;
64351;SDS011;50680;52.626;-8.668;2022-10-23T07:57:03;26.17;;;5.05;;
64351;SDS011;50680;52.626;-8.668;2022-10-23T07:59:30;18.88;;;5.28;;
64351;SDS011;50680;52.626;-8.668;2022-10-23T08:02:03;17.73;;;4.57;;
64351;SDS011;50680;52.626;-8.668;2022-10-23T08:04:30;16.20;;;3.22;;
64351;SDS011;50680;52.626;-8.668;2022-10-23T08:06:56;9.70;;;2.75;;
64351;SDS011;50680;52.626;-8.668;2022-10-23T08:09:23;24.65;;;3.65;;
64351;SDS011;50680;52.626;-8.668;2022-10-23T08:11:50;9.68;;;2.55;;
64351;SDS011;50680;52.626;-8.668;2022-10-23T08:14:17;16.75;;;2.95;;
64351;SDS011;50680;52.626;-8.668;2022-10-23T08:16:44;18.67;;;2.67;;
64351;SDS011;50680;52.626;-8.668;2022-10-23T08:19:11;16.65;;;2.92;;
64351;SDS011;50680;52.626;-8.668;2022-10-23T08:21:38;21.75;;;3.13;;
64351;SDS011;50680;52.626;-8.668;2022-10-23T08:24:05;17.38;;;2.88;;
64351;SDS011;50680;52.626;-8.668;2022-10-23T08:26:32;18.13;;;3.13;;
64351;SDS011;50680;52.626;-8.668;2022-10-23T08:28:59;18.40;;;3.95;;
64351;SDS011;50680;52.626;-8.668;2022-10-23T08:31:26;20.17;;;3.88;;
64351;SDS011;50680;52.626;-8.668;2022-10-23T08:33:54;10.25;;;3.22;;
64351;SDS011;50680;52.626;-8.668;2022-10-23T08:36:22;14.38;;;3.08;;
64351;SDS011;50680;52.626;-8.668;2022-10-23T08:38:50;13.85;;;2.33;;
64351;SDS011;50680;52.626;-8.668;2022-10-23T08:43:53;9.68;;;2.13;;
64351;SDS011;50680;52.626;-8.668;2022-10-23T08:46:30;16.95;;;3.50;;
64351;SDS011;50680;52.626;-8.668;2022-10-23T08:49:21;22.15;;;3.80;;
64351;SDS011;50680;52.626;-8.668;2022-10-23T08:52:04;15.95;;;2.03;;
64351;SDS011;50680;52.626;-8.668;2022-10-23T08:54:54;12.63;;;1.60;;
64351;SDS011;50680;52.626;-8.668;2022-10-23T08:57:29;10.65;;;2.13;;
64351;SDS011;50680;52.626;-8.668;2022-10-23T09:00:11;18.10;;;2.50;;
64351;SDS011;50680;52.626;-8.668;2022-10-23T09:02:44;15.77;;;2.25;;
64351;SDS011;50680;52.626;-8.668;2022-10-23T09:10:59;22.58;;;2.20;;
64351;SDS011;50680;52.626;-8.668;2022-10-23T09:16:28;26.90;;;2.45;;
64351;SDS011;50680;52.626;-8.668;2022-10-23T09:19:10;21.02;;;3.03;;
64351;SDS011;50680;52.626;-8.668;2022-10-23T09:21:40;23.05;;;3.08;;
64351;SDS011;50680;52.626;-8.668;2022-10-23T09:24:15;22.70;;;2.70;;
64351;SDS011;50680;52.626;-8.668;2022-10-23T09:26:44;25.80;;;3.47;;
64351;SDS011;50680;52.626;-8.668;2022-10-23T09:29:23;22.95;;;3.20;;
64351;SDS011;50680;52.626;-8.668;2022-10-23T09:31:53;17.15;;;2.40;;
64351;SDS011;50680;52.626;-8.668;2022-10-23T09:34:23;13.00;;;2.83;;
64351;SDS011;50680;52.626;-8.668;2022-10-23T09:37:34;17.90;;;2.50;;
64351;SDS011;50680;52.626;-8.668;2022-10-23T09:39:47;12.30;;;1.92;;
64351;SDS011;50680;52.626;-8.668;2022-10-23T09:42:22;25.45;;;2.20;;
64351;SDS011;50680;52.626;-8.668;2022-10-23T09:44:52;17.65;;;1.85;;
64351;SDS011;50680;52.626;-8.668;2022-10-23T09:47:21;16.88;;;2.60;;
64351;SDS011;50680;52.626;-8.668;2022-10-23T09:49:51;20.90;;;1.90;;
64351;SDS011;50680;52.626;-8.668;2022-10-23T09:52:35;16.48;;;1.73;;
64351;SDS011;50680;52.626;-8.668;2022-10-23T09:55:25;15.82;;;2.10;;
64351;SDS011;50680;52.626;-8.668;2022-10-23T09:57:51;15.95;;;1.67;;
64351;SDS011;50680;52.626;-8.668;2022-10-23T10:00:20;11.32;;;1.50;;
64351;SDS011;50680;52.626;-8.668;2022-10-23T10:02:57;12.15;;;1.52;;
64351;SDS011;50680;52.626;-8.668;2022-10-23T10:05:26;14.77;;;1.67;;
64351;SDS011;50680;52.626;-8.668;2022-10-23T10:10:41;10.40;;;1.85;;
64351;SDS011;50680;52.626;-8.668;2022-10-23T10:13:30;14.20;;;1.63;;
64351;SDS011;50680;52.626;-8.668;2022-10-23T10:16:19;15.82;;;1.52;;
64351;SDS011;50680;52.626;-8.668;2022-10-23T10:24:45;14.20;;;2.20;;
64351;SDS011;50680;52.626;-8.668;2022-10-23T10:30:22;12.68;;;1.50;;
64351;SDS011;50680;52.626;-8.668;2022-10-23T10:33:13;7.60;;;1.30;;
64351;SDS011;50680;52.626;-8.668;2022-10-23T10:36:31;10.55;;;1.30;;
64351;SDS011;50680;52.626;-8.668;2022-10-23T10:39:07;12.40;;;1.50;;
64351;SDS011;50680;52.626;-8.668;2022-10-23T10:42:01;10.05;;;1.35;;
64351;SDS011;50680;52.626;-8.668;2022-10-23T10:44:49;10.77;;;1.42;;
64351;SDS011;50680;52.626;-8.668;2022-10-23T10:47:29;11.07;;;1.38;;
64351;SDS011;50680;52.626;-8.668;2022-10-23T11:00:51;13.27;;;1.40;;
64351;SDS011;50680;52.626;-8.668;2022-10-23T11:03:38;10.70;;;1.27;;
64351;SDS011;50680;52.626;-8.668;2022-10-23T11:06:12;12.93;;;1.20;;
64351;SDS011;50680;52.626;-8.668;2022-10-23T11:08:42;13.25;;;1.52;;
64351;SDS011;50680;52.626;-8.668;2022-10-23T11:11:34;13.77;;;2.10;;
64351;SDS011;50680;52.626;-8.668;2022-10-23T11:14:18;8.85;;;0.85;;
64351;SDS011;50680;52.626;-8.668;2022-10-23T11:17:37;8.88;;;1.30;;
64351;SDS011;50680;52.626;-8.668;2022-10-23T11:31:37;9.18;;;1.40;;
64351;SDS011;50680;52.626;-8.668;2022-10-23T11:34:16;12.98;;;1.55;;
64351;SDS011;50680;52.626;-8.668;2022-10-23T11:36:52;14.35;;;1.40;;
64351;SDS011;50680;52.626;-8.668;2022-10-23T11:39:28;17.02;;;1.55;;
64351;SDS011;50680;52.626;-8.668;2022-10-23T11:44:42;12.95;;;1.30;;
64351;SDS011;50680;52.626;-8.668;2022-10-23T11:52:37;14.05;;;1.80;;
64351;SDS011;50680;52.626;-8.668;2022-10-23T11:55:38;12.25;;;1.55;;
64351;SDS011;50680;52.626;-8.668;2022-10-23T11:58:09;19.25;;;1.50;;
64351;SDS011;50680;52.626;-8.668;2022-10-23T12:00:52;15.07;;;1.35;;
64351;SDS011;50680;52.626;-8.668;2022-10-23T12:03:26;11.90;;;1.55;;
64351;SDS011;50680;52.626;-8.668;2022-10-23T12:06:01;14.38;;;1.50;;
64351;SDS011;50680;52.626;-8.668;2022-10-23T12:08:31;20.98;;;2.47;;
64351;SDS011;50680;52.626;-8.668;2022-10-23T12:11:01;12.25;;;1.52;;
64351;SDS011;50680;52.626;-8.668;2022-10-23T12:16:04;9.50;;;1.15;;
64351;SDS011;50680;52.626;-8.668;2022-10-23T12:19:47;9.93;;;1.33;;
64351;SDS011;50680;52.626;-8.668;2022-10-23T12:21:45;11.50;;;1.30;;
64351;SDS011;50680;52.626;-8.668;2022-10-23T12:24:20;13.48;;;1.60;;
64351;SDS011;50680;52.626;-8.668;2022-10-23T12:27:08;7.57;;;1.25;;
64351;SDS011;50680;52.626;-8.668;2022-10-23T12:35:38;7.93;;;1.35;;
64351;SDS011;50680;52.626;-8.668;2022-10-23T12:38:19;10.57;;;1.58;;
64351;SDS011;50680;52.626;-8.668;2022-10-23T12:40:50;11.20;;;1.48;;
64351;SDS011;50680;52.626;-8.668;2022-10-23T12:43:20;12.52;;;1.65;;
64351;SDS011;50680;52.626;-8.668;2022-10-23T12:45:51;19.10;;;1.50;;
64351;SDS011;50680;52.626;-8.668;2022-10-23T12:48:21;13.23;;;1.20;;
64351;SDS011;50680;52.626;-8.668;2022-10-23T12:50:51;15.57;;;1.27;;
64351;SDS011;50680;52.626;-8.668;2022-10-23T12:55:53;11.73;;;1.42;;
64351;SDS011;50680;52.626;-8.668;2022-10-23T12:58:32;16.85;;;1.73;;
64351;SDS011;50680;52.626;-8.668;2022-10-23T13:01:04;16.13;;;1.77;;
64351;SDS011;50680;52.626;-8.668;2022-10-23T13:03:32;13.52;;;1.55;;
64351;SDS011;50680;52.626;-8.668;2022-10-23T13:06:00;15.25;;;1.50;;
64351;SDS011;50680;52.626;-8.668;2022-10-23T13:08:39;17.50;;;1.75;;
64351;SDS011;50680;52.626;-8.668;2022-10-23T13:11:15;16.17;;;1.80;;
64351;SDS011;50680;52.626;-8.668;2022-10-23T13:13:45;15.95;;;1.50;;
64351;SDS011;50680;52.626;-8.668;2022-10-23T13:16:16;18.23;;;1.75;;
64351;SDS011;50680;52.626;-8.668;2022-10-23T13:18:51;16.77;;;2.13;;
64351;SDS011;50680;52.626;-8.668;2022-10-23T13:21:20;13.43;;;1.65;;
64351;SDS011;50680;52.626;-8.668;2022-10-23T13:23:49;12.63;;;1.50;;
64351;SDS011;50680;52.626;-8.668;2022-10-23T13:26:30;13.27;;;1.45;;
64351;SDS011;50680;52.626;-8.668;2022-10-23T13:32:10;12.65;;;1.63;;
64351;SDS011;50680;52.626;-8.668;2022-10-23T13:37:35;12.32;;;1.73;;
64351;SDS011;50680;52.626;-8.668;2022-10-23T13:40:06;9.80;;;1.30;;
64351;SDS011;50680;52.626;-8.668;2022-10-23T13:42:49;14.63;;;1.35;;
64351;SDS011;50680;52.626;-8.668;2022-10-23T13:45:19;7.45;;;1.42;;
64351;SDS011;50680;52.626;-8.668;2022-10-23T13:47:50;17.95;;;1.88;;
64351;SDS011;50680;52.626;-8.668;2022-10-23T13:50:17;15.07;;;1.67;;
64351;SDS011;50680;52.626;-8.668;2022-10-23T13:52:45;15.93;;;1.67;;
64351;SDS011;50680;52.626;-8.668;2022-10-23T13:57:46;9.70;;;1.38;;
64351;SDS011;50680;52.626;-8.668;2022-10-23T14:00:14;9.65;;;1.27;;
64351;SDS011;50680;52.626;-8.668;2022-10-23T14:02:42;5.90;;;0.95;;
64351;SDS011;50680;52.626;-8.668;2022-10-23T14:05:09;9.05;;;1.38;;
64351;SDS011;50680;52.626;-8.668;2022-10-23T14:07:37;6.22;;;1.10;;
64351;SDS011;50680;52.626;-8.668;2022-10-23T14:10:04;11.95;;;1.10;;
64351;SDS011;50680;52.626;-8.668;2022-10-23T14:12:38;9.00;;;1.00;;
64351;SDS011;50680;52.626;-8.668;2022-10-23T14:15:09;9.35;;;1.25;;
64351;SDS011;50680;52.626;-8.668;2022-10-23T14:17:37;9.65;;;1.08;;
64351;SDS011;50680;52.626;-8.668;2022-10-23T14:20:04;7.50;;;1.25;;
64351;SDS011;50680;52.626;-8.668;2022-10-23T14:22:32;10.18;;;1.38;;
64351;SDS011;50680;52.626;-8.668;2022-10-23T14:24:59;12.65;;;1.17;;
64351;SDS011;50680;52.626;-8.668;2022-10-23T14:27:25;15.20;;;1.38;;
64351;SDS011;50680;52.626;-8.668;2022-10-23T14:29:52;8.32;;;1.13;;
64351;SDS011;50680;52.626;-8.668;2022-10-23T14:32:19;8.93;;;1.70;;
64351;SDS011;50680;52.626;-8.668;2022-10-23T14:34:49;12.68;;;1.00;;
64351;SDS011;50680;52.626;-8.668;2022-10-23T14:37:17;9.35;;;1.20;;
64351;SDS011;50680;52.626;-8.668;2022-10-23T14:39:45;7.05;;;0.93;;
64351;SDS011;50680;52.626;-8.668;2022-10-23T14:42:15;12.70;;;1.40;;
64351;SDS011;50680;52.626;-8.668;2022-10-23T14:44:42;9.25;;;1.20;;
64351;SDS011;50680;52.626;-8.668;2022-10-23T14:47:10;8.40;;;1.00;;
64351;SDS011;50680;52.626;-8.668;2022-10-23T14:49:37;14.35;;;1.20;;
64351;SDS011;50680;52.626;-8.668;2022-10-23T14:52:06;8.98;;;1.02;;
64351;SDS011;50680;52.626;-8.668;2022-10-23T14:54:33;12.57;;;1.17;;
64351;SDS011;50680;52.626;-8.668;2022-10-23T14:57:01;9.73;;;1.30;;
64351;SDS011;50680;52.626;-8.668;2022-10-23T14:59:29;8.15;;;1.45;;
64351;SDS011;50680;52.626;-8.668;2022-10-23T15:01:56;12.00;;;1.13;;
64351;SDS011;50680;52.626;-8.668;2022-10-23T15:04:22;14.32;;;1.33;;
64351;SDS011;50680;52.626;-8.668;2022-10-23T15:06:49;9.13;;;1.15;;
64351;SDS011;50680;52.626;-8.668;2022-10-23T15:09:17;9.20;;;1.27;;
64351;SDS011;50680;52.626;-8.668;2022-10-23T15:11:45;8.90;;;1.23;;
64351;SDS011;50680;52.626;-8.668;2022-10-23T15:14:12;7.50;;;1.33;;
64351;SDS011;50680;52.626;-8.668;2022-10-23T15:16:39;8.20;;;1.33;;
64351;SDS011;50680;52.626;-8.668;2022-10-23T15:19:11;8.30;;;1.23;;
64351;SDS011;50680;52.626;-8.668;2022-10-23T15:21:44;10.73;;;1.20;;
64351;SDS011;50680;52.626;-8.668;2022-10-23T15:24:12;15.45;;;2.20;;
64351;SDS011;50680;52.626;-8.668;2022-10-23T15:26:40;12.60;;;2.38;;
64351;SDS011;50680;52.626;-8.668;2022-10-23T15:29:09;7.53;;;1.40;;
64351;SDS011;50680;52.626;-8.668;2022-10-23T15:34:04;13.20;;;1.50;;
64351;SDS011;50680;52.626;-8.668;2022-10-23T15:36:31;13.50;;;1.80;;
64351;SDS011;50680;52.626;-8.668;2022-10-23T15:38:59;12.20;;;1.50;;
64351;SDS011;50680;52.626;-8.668;2022-10-23T15:41:30;14.57;;;1.92;;
64351;SDS011;50680;52.626;-8.668;2022-10-23T15:43:59;11.20;;;2.05;;
64351;SDS011;50680;52.626;-8.668;2022-10-23T15:46:27;11.88;;;1.65;;
64351;SDS011;50680;52.626;-8.668;2022-10-23T15:48:54;14.27;;;1.98;;
64351;SDS011;50680;52.626;-8.668;2022-10-23T15:51:21;14.10;;;1.60;;
64351;SDS011;50680;52.626;-8.668;2022-10-23T15:53:49;18.90;;;2.10;;
64351;SDS011;50680;52.626;-8.668;2022-10-23T15:56:17;15.15;;;2.22;;
64351;SDS011;50680;52.626;-8.668;2022-10-23T15:58:44;18.63;;;1.75;;
64351;SDS011;50680;52.626;-8.668;2022-10-23T16:01:11;15.65;;;2.30;;
64351;SDS011;50680;52.626;-8.668;2022-10-23T16:03:38;17.02;;;1.70;;
64351;SDS011;50680;52.626;-8.668;2022-10-23T16:06:06;20.10;;;3.65;;
64351;SDS011;50680;52.626;-8.668;2022-10-23T16:08:38;19.75;;;2.63;;
64351;SDS011;50680;52.626;-8.668;2022-10-23T16:11:16;17.75;;;2.05;;
64351;SDS011;50680;52.626;-8.668;2022-10-23T16:13:44;20.40;;;2.53;;
64351;SDS011;50680;52.626;-8.668;2022-10-23T16:16:15;22.20;;;2.22;;
64351;SDS011;50680;52.626;-8.668;2022-10-23T16:18:43;17.00;;;1.95;;
64351;SDS011;50680;52.626;-8.668;2022-10-23T16:21:20;19.92;;;2.47;;
64351;SDS011;50680;52.626;-8.668;2022-10-23T16:23:50;15.80;;;2.33;;
64351;SDS011;50680;52.626;-8.668;2022-10-23T16:26:18;20.55;;;2.42;;
64351;SDS011;50680;52.626;-8.668;2022-10-23T16:28:46;18.30;;;2.75;;
64351;SDS011;50680;52.626;-8.668;2022-10-23T16:31:16;22.27;;;2.10;;
64351;SDS011;50680;52.626;-8.668;2022-10-23T16:33:46;21.75;;;2.53;;
64351;SDS011;50680;52.626;-8.668;2022-10-23T16:36:15;16.02;;;2.60;;